National Weather Service United States Department of Commerce

Heavy Rainfall & Thunderstorms in the Deep South & Gulf Coast; Critical Fire Weather Conditions for Southern California

A slow-moving frontal boundary will bring locally heavy rainfall, a few thunderstorms, and the potential of flash flooding to the Gulf Coast and much of the Southeast U.S. into Sunday. Meanwhile, dry and gusty conditions will again result in critical fire weather conditions for southern California. Another round of precipitation will impact the Pacific Northwest by late Sunday into Monday. Read More >

This is an experimental project that is derived straight from the NWS Billings aviation grids. 
There is no human interaction or quality control with this forecast and amendments are not issued.

 

TAF
K3U4 282310Z 2900/2924 33007KT P6SM BKN200 WS019/34040KT
     FM290100 33014KT P6SM OVC180
     FM290500 34006KT P6SM FEW060
     FM291100 00000KT P6SM FEW250
     FM291400 00000KT P6SM SCT030
     FM291600 VRB03KT P6SM FEW180
      AMD NOT SKED. UNFL=

TAF
KBHK 282310Z 2900/2924 31014G23KT P6SM FEW200
     FM290300 32015G23KT P6SM FEW120
     FM290700 31012G20KT P6SM FEW025
     FM290800 31012KT P6SM FEW010
     FM291400 28007KT P6SM FEW016
     FM292300 22006KT P6SM FEW200
      AMD NOT SKED. UNFL=

TAF
K6S0 282310Z 2900/2924 28014KT P6SM BKN100
     FM290100 27019KT P6SM SCT090
     FM290300 25013KT P6SM FEW050
     FM291200 25011KT P6SM FEW150
     FM292000 22016KT P6SM FEW200
     FM292200 19015KT P6SM FEW200
      AMD NOT SKED. UNFL=

TAF
K6S1 282310Z 2900/2924 32006KT P6SM BKN180
     FM290200 36007KT P6SM BKN070
     FM290300 02008KT P6SM SCT080
     FM290500 34007KT P6SM SCT060
     FM291600 18009KT P6SM FEW100
     FM292300 17015G23KT P6SM FEW200
      AMD NOT SKED. UNFL=

TAF
K00F 282310Z 2900/2924 32009KT P6SM BKN180
     FM290300 33009KT P6SM OVC120 WS020/34035KT
     FM290400 33008KT P6SM BKN090
     FM290500 33008KT P6SM SCT070
     FM291000 31006KT P6SM FEW001
     FM291700 VRB05KT P6SM FEW250
      AMD NOT SKED. UNFL=

TAF
KM46 282310Z 2900/2924 33008KT P6SM BKN150
     FM290100 33016KT P6SM OVC150 WS020/34040KT
     FM290200 34012KT P6SM OVC090
     FM290400 34007KT P6SM FEW045
     FM291800 20006KT P6SM FEW180
     FM292200 17007KT P6SM FEW180
      AMD NOT SKED. UNFL=

TAF
K6S3 282310Z 2900/2924 31009KT P6SM BKN120
     FM290200 31010KT P6SM SCT080
     FM290600 VRB03KT P6SM BKN050
     FM290700 VRB03KT P6SM SCT045
     FM292100 17012KT P6SM FEW200
     FM292300 17010G19KT P6SM FEW250
      AMD NOT SKED. UNFL=

TAF
K97M 282310Z 2900/2924 31011G21KT P6SM SCT200
     FM290100 31018KT P6SM BKN180
     FM290500 33012G21KT P6SM FEW120
     FM290800 31010G19KT P6SM FEW002
     FM291600 28007KT P6SM FEW001
     FM292000 25007KT P6SM SKC
      AMD NOT SKED. UNFL=

TAF
K1S3 282310Z 2900/2924 32013KT P6SM BKN150
     FM290300 34011KT P6SM SCT060
     FM290500 32007KT P6SM FEW100
     FM290600 31006KT P6SM FEW045
     FM290900 VRB04KT P6SM FEW003
     FM291300 VRB04KT P6SM SCT120
      AMD NOT SKED. UNFL=

TAF
K5U7 282310Z 2900/2924 31008KT P6SM BKN180
     FM290400 VRB05KT P6SM BKN060
     FM290500 VRB05KT P6SM BKN045
     FM290900 VRB05KT P6SM SCT050
     FM291400 VRB05KT P6SM FEW100
     FM291900 17010KT P6SM FEW180
      AMD NOT SKED. UNFL=

TAF
K29S 282310Z 2900/2924 VRB05KT P6SM BKN180
     FM290200 24006KT P6SM SCT090
     FM290400 22007KT P6SM FEW030
     FM290700 17006KT P6SM FEW050
     FM290900 VRB05KT P6SM FEW010
     FM291000 VRB05KT P6SM FEW045
      AMD NOT SKED. UNFL=

TAF
K00U 282310Z 2900/2924 33006KT P6SM BKN150
     FM290300 VRB05KT P6SM SCT150
     FM290400 VRB05KT P6SM FEW060
     FM290600 00000KT P6SM BKN070
     FM290800 00000KT P6SM SCT040
     FM291300 00000KT P6SM FEW090
      AMD NOT SKED. UNFL=

TAF
KHWQ 282310Z 2900/2924 29013G23KT P6SM SCT150
     FM290100 30015KT P6SM SCT045
     FM290300 34009KT P6SM SCT060
     FM290400 34009KT P6SM BKN050
     FM290600 32008KT P6SM SCT060
     FM291300 22007KT P6SM FEW150
      AMD NOT SKED. UNFL=

TAF
K6U7 282310Z 2900/2924 33010G18KT P6SM BKN150
     FM290100 33016KT P6SM BKN100
     FM290300 34007KT P6SM FEW080
     FM290400 VRB05KT P6SM FEW060
     FM290800 00000KT P6SM FEW050
     FM291000 00000KT P6SM FEW250
      AMD NOT SKED. UNFL=

TAF
K6S8 282310Z 2900/2924 31009KT P6SM BKN120 WS020/32040KT
     FM290200 33011KT P6SM SCT120
     FM290500 03006KT P6SM BKN060
     FM290900 VRB05KT P6SM SCT045
     FM291100 VRB04KT P6SM SCT027
     FM292100 20014KT P6SM FEW150
      AMD NOT SKED. UNFL=

TAF
K80S 282310Z 2900/2924 31007KT P6SM BKN120
     FM290100 32014KT P6SM SCT120
     FM290300 VRB04KT P6SM SCT060
     FM290500 00000KT P6SM BKN070
     FM290600 00000KT P6SM SCT070
     FM292000 20010KT P6SM FEW200
      AMD NOT SKED. UNFL=

TAF
KRED 282310Z 2900/2924 32008KT P6SM BKN180
     FM290300 31010KT P6SM FEW080
     FM290700 34008KT P6SM SCT026
     FM291200 22006KT P6SM FEW045
     FM291400 19007KT P6SM FEW150
     FM291700 15009KT P6SM FEW180
      AMD NOT SKED. UNFL=

TAF
KRPX 282310Z 2900/2924 32007KT P6SM BKN120
     FM290100 32014KT P6SM SCT070
     FM290300 36006KT P6SM SCT040
     FM291700 22006KT P6SM FEW180
     FM292000 21010G18KT P6SM FEW150
     FM292300 21009KT P6SM FEW250
      AMD NOT SKED. UNFL=

TAF
K8U0 282310Z 2900/2924 29009KT P6SM BKN120
     FM290100 31015KT P6SM SCT100
     FM290300 VRB05KT P6SM SCT050
     FM290500 VRB04KT P6SM BKN070
     FM290700 VRB04KT P6SM SCT060
     FM292200 19008KT P6SM FEW250
      AMD NOT SKED. UNFL=

TAF
K9U1 282310Z 2900/2924 28007KT P6SM BKN090
     FM290100 30011KT P6SM SCT070
     FM290300 28007KT P6SM FEW035
     FM290500 31006KT P6SM FEW024
     FM290800 34006KT P6SM FEW010
     FM291000 VRB05KT P6SM FEW100
      AMD NOT SKED. UNFL=